Amy C. Mc Allister — WCZ9520 — position and weather

sailwx.info

Track history (hours):
 
Tides and Currents Weather Stations Pressure Air Temp Water Temp Dewpoint Dewpoint Depression Visibility Wind Speed Wind Dir Waves Ship Positions

Amy C. Mc Allister

Owner: MC ALLISTER TOWING & TRANSPORTATION INC, NEW YORK, NY. More information available from US FCC via Universal Licensing System and Coast Guard Vessel Documentation Center.

Last reported at 2017-Dec-11 17:00 UTC. Time now 2017-Dec-12 02:51 UTC.
Position N 36°53' W 076°21'.

; draft 4.9 m.

Type: Towing. MMSI: 366995040.

Date/timePositionNaut miles runAvg speedWind from/ knotsBaromVisibWave heightAir tempDewpointWater temp
2017-Dec-11 17:00N 36°53' W 076°21'3 1.3
2017-Dec-11 14:43N 36°55' W 076°20'0 0.0
2017-Dec-11 12:51N 36°55' W 076°20'0 0.0
2017-Dec-11 12:22N 36°55' W 076°20'0 0.0
2017-Dec-10 17:01N 36°56' W 076°20'0 0.0
2017-Dec-10 16:55N 36°56' W 076°20'0 0.3
2017-Dec-10 16:30N 36°56' W 076°20'143 8.0
2017-Dec-09 22:33N 39°19' W 076°13'0 9.8
2017-Dec-09 22:30N 39°19' W 076°13'5 9.4
2017-Dec-09 22:00N 39°22' W 076°08'5 9.0
2017-Dec-09 21:30N 39°24' W 076°03'5 9.0
2017-Dec-09 21:00N 39°28' W 075°59'5 9.8
2017-Dec-09 20:30N 39°31' W 075°54'5 9.5
2017-Dec-09 20:00N 39°32' W 075°48'5 9.5
2017-Dec-09 19:30N 39°33' W 075°42'5 9.1
2017-Dec-09 19:00N 39°33' W 075°36'2 5.0
2017-Dec-09 18:30N 39°35' W 075°34'3 6.0
2017-Dec-09 18:00N 39°38' W 075°34'4 7.8
2017-Dec-09 17:30N 39°41' W 075°31'4 8.7
2017-Dec-09 17:00N 39°45' W 075°29'5 9.3
2017-Dec-09 16:30N 39°49' W 075°25'5 9.8
2017-Dec-09 16:01N 39°51' W 075°19'5 9.5
2017-Dec-09 15:30N 39°52' W 075°13'4 8.7
2017-Dec-09 15:00N 39°54' W 075°08'0 0.5
2017-Dec-09 14:31N 39°54' W 075°08'0 0.0
2017-Dec-09 14:01N 39°54' W 075°08'0 0.0
2017-Dec-09 13:30N 39°54' W 075°08'0 0.0
2017-Dec-09 13:01N 39°54' W 075°08'0 0.0
2017-Dec-09 12:30N 39°54' W 075°08'0 0.0
2017-Dec-09 12:00N 39°54' W 075°08'0 0.0
2017-Dec-09 11:31N 39°54' W 075°08'0 0.0
2017-Dec-09 11:01N 39°54' W 075°08'0 0.0
2017-Dec-09 10:30N 39°54' W 075°08'0 0.0
2017-Dec-09 10:01N 39°54' W 075°08'0 0.1
2017-Dec-09 09:31N 39°54' W 075°08'0 0.0
2017-Dec-09 09:01N 39°54' W 075°08'0 0.0
2017-Dec-09 08:30N 39°54' W 075°08'0 0.4
2017-Dec-09 08:00N 39°54' W 075°08'3 6.0
2017-Dec-09 07:31N 39°53' W 075°12'4 8.9
2017-Dec-09 07:00N 39°51' W 075°17'5 9.3
2017-Dec-09 06:31N 39°49' W 075°23'5 9.3
2017-Dec-09 06:00N 39°47' W 075°28'5 9.8
2017-Dec-09 05:30N 39°42' W 075°31'5 9.4
2017-Dec-09 05:00N 39°38' W 075°34'4 8.6
2017-Dec-09 04:30N 39°34' W 075°33'5 9.9
2017-Dec-09 04:00N 39°33' W 075°39'611.2
2017-Dec-09 03:30N 39°32' W 075°46'5 9.9
2017-Dec-09 03:00N 39°31' W 075°53'510.1
2017-Dec-09 02:30N 39°28' W 075°58'5 9.8
2017-Dec-09 02:00N 39°25' W 076°02'23 8.1
2017-Dec-08 23:11N 39°11' W 076°26'2 9.2
2017-Dec-08 23:00N 39°11' W 076°28'5 9.3
2017-Dec-08 22:30N 39°14' W 076°33'2 3.1
2017-Dec-08 22:00N 39°15' W 076°33'0 0.1
2017-Dec-08 21:30N 39°15' W 076°33'0 0.0
2017-Dec-08 21:00N 39°15' W 076°33'0 0.0
2017-Dec-08 20:30N 39°15' W 076°33'0 0.0
2017-Dec-08 20:00N 39°15' W 076°33'0 0.0
2017-Dec-08 19:30N 39°15' W 076°33'0 0.0
2017-Dec-08 19:00N 39°15' W 076°33'0 0.0
2017-Dec-08 18:30N 39°15' W 076°33'0 0.0
2017-Dec-08 18:00N 39°15' W 076°33'0 0.0
2017-Dec-08 17:30N 39°15' W 076°33'0 0.0
2017-Dec-08 17:00N 39°15' W 076°33'0 0.0
2017-Dec-08 16:30N 39°15' W 076°33'0 0.0
2017-Dec-08 16:00N 39°15' W 076°33'0 0.0
2017-Dec-08 15:30N 39°15' W 076°33'0 0.0
2017-Dec-08 15:00N 39°15' W 076°33'0 0.0
2017-Dec-08 14:29N 39°15' W 076°33'0 0.0
2017-Dec-08 14:00N 39°15' W 076°33'0 0.0
2017-Dec-08 13:30N 39°15' W 076°33'0 0.0
2017-Dec-08 13:00N 39°15' W 076°33'0 0.0
2017-Dec-08 12:30N 39°15' W 076°33'0 0.0
2017-Dec-08 12:00N 39°15' W 076°33'0 0.0
2017-Dec-08 11:30N 39°15' W 076°33'0 0.0
2017-Dec-08 11:00N 39°15' W 076°33'0 0.0
2017-Dec-08 10:30N 39°15' W 076°33'0 0.0
2017-Dec-08 10:00N 39°15' W 076°33'0 0.0
2017-Dec-08 09:30N 39°15' W 076°33'0 0.0
2017-Dec-08 09:00N 39°15' W 076°33'0 0.0
2017-Dec-08 08:30N 39°15' W 076°33'0 0.0
2017-Dec-08 08:00N 39°15' W 076°33'0 0.0
2017-Dec-08 07:30N 39°15' W 076°33'0 0.0
2017-Dec-08 07:00N 39°15' W 076°33'0 0.0
2017-Dec-08 06:30N 39°15' W 076°33'0 0.0
2017-Dec-08 06:00N 39°15' W 076°33'0 0.1
2017-Dec-08 05:30N 39°15' W 076°33'0 0.1
2017-Dec-08 05:00N 39°15' W 076°33'0 0.0
2017-Dec-08 04:30N 39°15' W 076°33'0 0.0
2017-Dec-08 04:00N 39°15' W 076°33'0 0.0
2017-Dec-08 03:30N 39°15' W 076°33'0 0.0
2017-Dec-08 03:00N 39°15' W 076°33'0 0.0
2017-Dec-08 02:30N 39°15' W 076°33'0 0.0
2017-Dec-08 02:00N 39°15' W 076°33'0 0.0
2017-Dec-08 01:30N 39°15' W 076°33'0 0.3
2017-Dec-08 01:00N 39°15' W 076°33'2 3.5
2017-Dec-08 00:29N 39°14' W 076°32'4 8.7
2017-Dec-08 00:00N 39°11' W 076°28'138 7.3
2017-Dec-07 05:01N 36°53' W 076°20'0 7.4
2017-Dec-07 05:00N 36°53' W 076°20'1 1.2
2017-Dec-07 04:22N 36°53' W 076°21'0 0.0
2017-Dec-06 22:11N 36°53' W 076°21'1 2.8
2017-Dec-06 21:57N 36°53' W 076°20'3 4.7
2017-Dec-06 21:24N 36°55' W 076°20'0 0.0
2017-Dec-06 20:56N 36°55' W 076°20'  
2017-Dec-03 07:04N 38°56' W 076°24'1 8.4
2017-Dec-03 06:59N 38°57' W 076°24'5 8.6
2017-Dec-03 06:25N 39°02' W 076°22'8 8.3
2017-Dec-03 05:24N 39°10' W 076°18'2110.0
2017-Dec-03 03:20N 39°25' W 076°01'2 6.4
2017-Dec-03 02:57N 39°27' W 075°59'4 8.1
2017-Dec-03 02:26N 39°30' W 075°55'4 7.5
2017-Dec-03 01:55N 39°32' W 075°51'3 6.2
2017-Dec-03 01:24N 39°32' W 075°47'3 6.5
2017-Dec-03 00:59N 39°33' W 075°43'2 4.5
2017-Dec-03 00:30N 39°33' W 075°40'3 5.5
2017-Dec-03 00:00N 39°33' W 075°37'2 4.5
2017-Dec-02 23:30N 39°34' W 075°34'1 2.4
2017-Dec-02 23:00N 39°33' W 075°33'2 4.7
2017-Dec-02 22:30N 39°35' W 075°34'3 5.7
2017-Dec-02 22:00N 39°38' W 075°34'3 6.5
2017-Dec-02 21:30N 39°40' W 075°32'4 7.8
2017-Dec-02 21:00N 39°44' W 075°30'4 7.3
2017-Dec-02 20:24N 39°48' W 075°27'4 7.6
2017-Dec-02 19:56N 39°49' W 075°23'4 8.2
2017-Dec-02 19:29N 39°51' W 075°18'510.4
2017-Dec-02 18:59N 39°53' W 075°12'3 6.1
2017-Dec-02 18:26N 39°54' W 075°08'0 0.3
2017-Dec-02 18:00N 39°54' W 075°08'0 0.0
2017-Dec-02 17:28N 39°54' W 075°08'0 0.2
2017-Dec-02 16:58N 39°54' W 075°08'0 0.2
2017-Dec-02 16:28N 39°54' W 075°08'0 0.0
2017-Dec-02 15:57N 39°54' W 075°08'0 0.0
2017-Dec-02 15:29N 39°54' W 075°08'0 0.0
2017-Dec-02 14:59N 39°54' W 075°08'0 0.1
2017-Dec-02 14:30N 39°54' W 075°08'1 2.0
2017-Dec-02 13:59N 39°53' W 075°08'3 5.1
2017-Dec-02 13:28N 39°53' W 075°12'4 8.7
2017-Dec-02 12:59N 39°51' W 075°17'3 6.1
2017-Dec-02 12:26N 39°51' W 075°21'3 6.7
2017-Dec-02 11:59N 39°49' W 075°24'3 5.8
2017-Dec-02 11:29N 39°47' W 075°27'4 7.7
2017-Dec-02 10:57N 39°44' W 075°30'2 4.7
2017-Dec-02 10:30N 39°42' W 075°31'3 7.0
2017-Dec-02 10:00N 39°39' W 075°33'3 6.1
2017-Dec-02 09:30N 39°36' W 075°34'2 4.5
2017-Dec-02 09:00N 39°34' W 075°35'4 7.6
2017-Dec-02 08:30N 39°33' W 075°39'5 9.2
2017-Dec-02 07:56N 39°32' W 075°46'3 5.2
2017-Dec-02 07:27N 39°32' W 075°49'3 6.6
2017-Dec-02 06:58N 39°31' W 075°53'4 7.4
2017-Dec-02 06:30N 39°29' W 075°57'4 7.7
2017-Dec-02 05:57N 39°26' W 076°01'3 7.1
2017-Dec-02 05:30N 39°24' W 076°04'4 7.2
2017-Dec-02 04:58N 39°22' W 076°08'4 7.1
2017-Dec-02 04:28N 39°20' W 076°12'3 5.5
2017-Dec-02 03:57N 39°17' W 076°14'11 5.0
2017-Dec-02 01:48N 39°10' W 076°24'2 7.0
2017-Dec-02 01:29N 39°11' W 076°26'3 7.0
2017-Dec-02 01:00N 39°12' W 076°30'3 6.9
2017-Dec-02 00:30N 39°15' W 076°33'1 1.5
2017-Dec-02 00:00N 39°15' W 076°33'0 0.0
2017-Dec-01 23:30N 39°15' W 076°33'0 0.0
2017-Dec-01 22:57N 39°15' W 076°33'0 0.0
2017-Dec-01 22:30N 39°15' W 076°33'0 0.0
2017-Dec-01 22:00N 39°15' W 076°33'0 0.0
2017-Dec-01 21:30N 39°15' W 076°33'0 0.0
2017-Dec-01 21:00N 39°15' W 076°33'0 0.0
2017-Dec-01 20:30N 39°15' W 076°33'0 0.0
2017-Dec-01 20:00N 39°15' W 076°33'0 0.0
2017-Dec-01 19:30N 39°15' W 076°33'0 0.0
2017-Dec-01 18:52N 39°15' W 076°33'0 0.0
2017-Dec-01 18:29N 39°15' W 076°33'0 0.0
2017-Dec-01 18:00N 39°15' W 076°33'0 0.0
2017-Dec-01 17:28N 39°15' W 076°33'  
Track history (hours):
 
Tides and Currents Weather Stations Pressure Air Temp Water Temp Dewpoint Dewpoint Depression Visibility Wind Speed Wind Dir Waves Ship Positions

Amy C. Mc Allister

Owner: MC ALLISTER TOWING & TRANSPORTATION INC, NEW YORK, NY. More information available from US FCC via Universal Licensing System and Coast Guard Vessel Documentation Center.

Last reported at 2017-Dec-11 17:00 UTC. Time now 2017-Dec-12 02:51 UTC.
Position N 36°53' W 076°21'.

; draft 4.9 m.

Type: Towing. MMSI: 366995040.

Date/timePositionNaut miles runAvg speedWind from/ knotsBaromVisibWave heightAir tempDewpointWater temp
2017-Dec-11 17:00N 36°53' W 076°21'3 1.3
2017-Dec-11 14:43N 36°55' W 076°20'0 0.0
2017-Dec-11 12:51N 36°55' W 076°20'0 0.0
2017-Dec-11 12:22N 36°55' W 076°20'0 0.0
2017-Dec-10 17:01N 36°56' W 076°20'0 0.0
2017-Dec-10 16:55N 36°56' W 076°20'0 0.3
2017-Dec-10 16:30N 36°56' W 076°20'143 8.0
2017-Dec-09 22:33N 39°19' W 076°13'0 9.8
2017-Dec-09 22:30N 39°19' W 076°13'5 9.4
2017-Dec-09 22:00N 39°22' W 076°08'5 9.0
2017-Dec-09 21:30N 39°24' W 076°03'5 9.0
2017-Dec-09 21:00N 39°28' W 075°59'5 9.8
2017-Dec-09 20:30N 39°31' W 075°54'5 9.5
2017-Dec-09 20:00N 39°32' W 075°48'5 9.5
2017-Dec-09 19:30N 39°33' W 075°42'5 9.1
2017-Dec-09 19:00N 39°33' W 075°36'2 5.0
2017-Dec-09 18:30N 39°35' W 075°34'3 6.0
2017-Dec-09 18:00N 39°38' W 075°34'4 7.8
2017-Dec-09 17:30N 39°41' W 075°31'4 8.7
2017-Dec-09 17:00N 39°45' W 075°29'5 9.3
2017-Dec-09 16:30N 39°49' W 075°25'5 9.8
2017-Dec-09 16:01N 39°51' W 075°19'5 9.5
2017-Dec-09 15:30N 39°52' W 075°13'4 8.7
2017-Dec-09 15:00N 39°54' W 075°08'0 0.5
2017-Dec-09 14:31N 39°54' W 075°08'0 0.0
2017-Dec-09 14:01N 39°54' W 075°08'0 0.0
2017-Dec-09 13:30N 39°54' W 075°08'0 0.0
2017-Dec-09 13:01N 39°54' W 075°08'0 0.0
2017-Dec-09 12:30N 39°54' W 075°08'0 0.0
2017-Dec-09 12:00N 39°54' W 075°08'0 0.0
2017-Dec-09 11:31N 39°54' W 075°08'0 0.0
2017-Dec-09 11:01N 39°54' W 075°08'0 0.0
2017-Dec-09 10:30N 39°54' W 075°08'0 0.0
2017-Dec-09 10:01N 39°54' W 075°08'0 0.1
2017-Dec-09 09:31N 39°54' W 075°08'0 0.0
2017-Dec-09 09:01N 39°54' W 075°08'0 0.0
2017-Dec-09 08:30N 39°54' W 075°08'0 0.4
2017-Dec-09 08:00N 39°54' W 075°08'3 6.0
2017-Dec-09 07:31N 39°53' W 075°12'4 8.9
2017-Dec-09 07:00N 39°51' W 075°17'5 9.3
2017-Dec-09 06:31N 39°49' W 075°23'5 9.3
2017-Dec-09 06:00N 39°47' W 075°28'5 9.8
2017-Dec-09 05:30N 39°42' W 075°31'5 9.4
2017-Dec-09 05:00N 39°38' W 075°34'4 8.6
2017-Dec-09 04:30N 39°34' W 075°33'5 9.9
2017-Dec-09 04:00N 39°33' W 075°39'611.2
2017-Dec-09 03:30N 39°32' W 075°46'5 9.9
2017-Dec-09 03:00N 39°31' W 075°53'510.1
2017-Dec-09 02:30N 39°28' W 075°58'5 9.8
2017-Dec-09 02:00N 39°25' W 076°02'23 8.1
2017-Dec-08 23:11N 39°11' W 076°26'2 9.2
2017-Dec-08 23:00N 39°11' W 076°28'5 9.3
2017-Dec-08 22:30N 39°14' W 076°33'2 3.1
2017-Dec-08 22:00N 39°15' W 076°33'0 0.1
2017-Dec-08 21:30N 39°15' W 076°33'0 0.0
2017-Dec-08 21:00N 39°15' W 076°33'0 0.0
2017-Dec-08 20:30N 39°15' W 076°33'0 0.0
2017-Dec-08 20:00N 39°15' W 076°33'0 0.0
2017-Dec-08 19:30N 39°15' W 076°33'0 0.0
2017-Dec-08 19:00N 39°15' W 076°33'0 0.0
2017-Dec-08 18:30N 39°15' W 076°33'0 0.0
2017-Dec-08 18:00N 39°15' W 076°33'0 0.0
2017-Dec-08 17:30N 39°15' W 076°33'0 0.0
2017-Dec-08 17:00N 39°15' W 076°33'0 0.0
2017-Dec-08 16:30N 39°15' W 076°33'0 0.0
2017-Dec-08 16:00N 39°15' W 076°33'0 0.0
2017-Dec-08 15:30N 39°15' W 076°33'0 0.0
2017-Dec-08 15:00N 39°15' W 076°33'0 0.0
2017-Dec-08 14:29N 39°15' W 076°33'0 0.0
2017-Dec-08 14:00N 39°15' W 076°33'0 0.0
2017-Dec-08 13:30N 39°15' W 076°33'0 0.0
2017-Dec-08 13:00N 39°15' W 076°33'0 0.0
2017-Dec-08 12:30N 39°15' W 076°33'0 0.0
2017-Dec-08 12:00N 39°15' W 076°33'0 0.0
2017-Dec-08 11:30N 39°15' W 076°33'0 0.0
2017-Dec-08 11:00N 39°15' W 076°33'0 0.0
2017-Dec-08 10:30N 39°15' W 076°33'0 0.0
2017-Dec-08 10:00N 39°15' W 076°33'0 0.0
2017-Dec-08 09:30N 39°15' W 076°33'0 0.0
2017-Dec-08 09:00N 39°15' W 076°33'0 0.0
2017-Dec-08 08:30N 39°15' W 076°33'0 0.0
2017-Dec-08 08:00N 39°15' W 076°33'0 0.0
2017-Dec-08 07:30N 39°15' W 076°33'0 0.0
2017-Dec-08 07:00N 39°15' W 076°33'0 0.0
2017-Dec-08 06:30N 39°15' W 076°33'0 0.0
2017-Dec-08 06:00N 39°15' W 076°33'0 0.1
2017-Dec-08 05:30N 39°15' W 076°33'0 0.1
2017-Dec-08 05:00N 39°15' W 076°33'0 0.0
2017-Dec-08 04:30N 39°15' W 076°33'0 0.0
2017-Dec-08 04:00N 39°15' W 076°33'0 0.0
2017-Dec-08 03:30N 39°15' W 076°33'0 0.0
2017-Dec-08 03:00N 39°15' W 076°33'0 0.0
2017-Dec-08 02:30N 39°15' W 076°33'0 0.0
2017-Dec-08 02:00N 39°15' W 076°33'0 0.0
2017-Dec-08 01:30N 39°15' W 076°33'0 0.3
2017-Dec-08 01:00N 39°15' W 076°33'2 3.5
2017-Dec-08 00:29N 39°14' W 076°32'4 8.7
2017-Dec-08 00:00N 39°11' W 076°28'138 7.3
2017-Dec-07 05:01N 36°53' W 076°20'0 7.4
2017-Dec-07 05:00N 36°53' W 076°20'1 1.2
2017-Dec-07 04:22N 36°53' W 076°21'0 0.0
2017-Dec-06 22:11N 36°53' W 076°21'1 2.8
2017-Dec-06 21:57N 36°53' W 076°20'3 4.7
2017-Dec-06 21:24N 36°55' W 076°20'0 0.0
2017-Dec-06 20:56N 36°55' W 076°20'  
2017-Dec-03 07:04N 38°56' W 076°24'1 8.4
2017-Dec-03 06:59N 38°57' W 076°24'5 8.6
2017-Dec-03 06:25N 39°02' W 076°22'8 8.3
2017-Dec-03 05:24N 39°10' W 076°18'2110.0
2017-Dec-03 03:20N 39°25' W 076°01'2 6.4
2017-Dec-03 02:57N 39°27' W 075°59'4 8.1
2017-Dec-03 02:26N 39°30' W 075°55'4 7.5
2017-Dec-03 01:55N 39°32' W 075°51'3 6.2
2017-Dec-03 01:24N 39°32' W 075°47'3 6.5
2017-Dec-03 00:59N 39°33' W 075°43'2 4.5
2017-Dec-03 00:30N 39°33' W 075°40'3 5.5
2017-Dec-03 00:00N 39°33' W 075°37'2 4.5
2017-Dec-02 23:30N 39°34' W 075°34'1 2.4
2017-Dec-02 23:00N 39°33' W 075°33'2 4.7
2017-Dec-02 22:30N 39°35' W 075°34'3 5.7
2017-Dec-02 22:00N 39°38' W 075°34'3 6.5
2017-Dec-02 21:30N 39°40' W 075°32'4 7.8
2017-Dec-02 21:00N 39°44' W 075°30'4 7.3
2017-Dec-02 20:24N 39°48' W 075°27'4 7.6
2017-Dec-02 19:56N 39°49' W 075°23'4 8.2
2017-Dec-02 19:29N 39°51' W 075°18'510.4
2017-Dec-02 18:59N 39°53' W 075°12'3 6.1
2017-Dec-02 18:26N 39°54' W 075°08'0 0.3
2017-Dec-02 18:00N 39°54' W 075°08'0 0.0
2017-Dec-02 17:28N 39°54' W 075°08'0 0.2
2017-Dec-02 16:58N 39°54' W 075°08'0 0.2
2017-Dec-02 16:28N 39°54' W 075°08'0 0.0
2017-Dec-02 15:57N 39°54' W 075°08'0 0.0
2017-Dec-02 15:29N 39°54' W 075°08'0 0.0
2017-Dec-02 14:59N 39°54' W 075°08'0 0.1
2017-Dec-02 14:30N 39°54' W 075°08'1 2.0
2017-Dec-02 13:59N 39°53' W 075°08'3 5.1
2017-Dec-02 13:28N 39°53' W 075°12'4 8.7
2017-Dec-02 12:59N 39°51' W 075°17'3 6.1
2017-Dec-02 12:26N 39°51' W 075°21'3 6.7
2017-Dec-02 11:59N 39°49' W 075°24'3 5.8
2017-Dec-02 11:29N 39°47' W 075°27'4 7.7
2017-Dec-02 10:57N 39°44' W 075°30'2 4.7
2017-Dec-02 10:30N 39°42' W 075°31'3 7.0
2017-Dec-02 10:00N 39°39' W 075°33'3 6.1
2017-Dec-02 09:30N 39°36' W 075°34'2 4.5
2017-Dec-02 09:00N 39°34' W 075°35'4 7.6
2017-Dec-02 08:30N 39°33' W 075°39'5 9.2
2017-Dec-02 07:56N 39°32' W 075°46'3 5.2
2017-Dec-02 07:27N 39°32' W 075°49'3 6.6
2017-Dec-02 06:58N 39°31' W 075°53'4 7.4
2017-Dec-02 06:30N 39°29' W 075°57'4 7.7
2017-Dec-02 05:57N 39°26' W 076°01'3 7.1
2017-Dec-02 05:30N 39°24' W 076°04'4 7.2
2017-Dec-02 04:58N 39°22' W 076°08'4 7.1
2017-Dec-02 04:28N 39°20' W 076°12'3 5.5
2017-Dec-02 03:57N 39°17' W 076°14'11 5.0
2017-Dec-02 01:48N 39°10' W 076°24'2 7.0
2017-Dec-02 01:29N 39°11' W 076°26'3 7.0
2017-Dec-02 01:00N 39°12' W 076°30'3 6.9
2017-Dec-02 00:30N 39°15' W 076°33'1 1.5
2017-Dec-02 00:00N 39°15' W 076°33'0 0.0
2017-Dec-01 23:30N 39°15' W 076°33'0 0.0
2017-Dec-01 22:57N 39°15' W 076°33'0 0.0
2017-Dec-01 22:30N 39°15' W 076°33'0 0.0
2017-Dec-01 22:00N 39°15' W 076°33'0 0.0
2017-Dec-01 21:30N 39°15' W 076°33'0 0.0
2017-Dec-01 21:00N 39°15' W 076°33'0 0.0
2017-Dec-01 20:30N 39°15' W 076°33'0 0.0
2017-Dec-01 20:00N 39°15' W 076°33'0 0.0
2017-Dec-01 19:30N 39°15' W 076°33'0 0.0
2017-Dec-01 18:52N 39°15' W 076°33'0 0.0
2017-Dec-01 18:29N 39°15' W 076°33'0 0.0
2017-Dec-01 18:00N 39°15' W 076°33'0 0.0
2017-Dec-01 17:28N 39°15' W 076°33'  

Dump ship's entire track history